< < Back
Terminal Aerodrome Forecast


Current Version              Previous Versions:   1  2  3  4  5  6  7  8  9  

Terminal Aerodrome Forecast

322
FTUS44 KBMX 240520
TAFANB
TAF
KANB 240520Z 2406/2506 03003KT P6SM SKC=



Latest METAR

200
SAUS70 KWBC 250900 RRX
MTRANB
METAR KANB 250953Z AUTO 08003KT 10SM CLR 21/17 A3007 RMK AO2 SLP169
T02110167


USA.gov is the U.S. government's official web portal to all federal, state and local government web resources and services.